Time;durP1;ratioP1;P1;durP2;ratioP2;P2;SDS_P1;SDS_P2;PMS_P1;PMS_P2;Temp;Humidity;BMP_temperature;BMP_pressure;BME280_temperature;BME280_humidity;BME280_pressure;Samples;Min_cycle;Max_cycle;Signal;HPM_P1;HPM_P2
2022/10/23 00:01:53;;;;;;;6.57;3.15;;;;;;;15.08;69.87;96823.81;4897853;29;20120;-79
2022/10/23 00:04:24;;;;;;;5.75;3.00;;;;;;;15.04;69.73;96823.44;4897998;29;20048;-79
2022/10/23 00:06:53;;;;;;;4.78;3.17;;;;;;;15.04;70.03;96814.72;4898230;29;20068;-79
2022/10/23 00:09:25;;;;;;;2.90;2.70;;;;;;;15.04;70.55;96825.22;4897607;29;20052;-79
2022/10/23 00:11:54;;;;;;;4.53;3.63;;;;;;;14.99;69.79;96814.53;4897860;29;20143;-79
2022/10/23 00:14:25;;;;;;;4.32;2.67;;;;;;;14.96;70.03;96809.69;4897792;29;20115;-79
2022/10/23 00:16:54;;;;;;;5.55;2.95;;;;;;;14.95;69.88;96810.69;4897941;29;20480;-79
2022/10/23 00:19:23;;;;;;;4.35;2.85;;;;;;;14.95;70.04;96805.44;4897611;29;20060;-79
2022/10/23 00:21:52;;;;;;;4.10;2.88;;;;;;;14.94;70.12;96806.47;4897765;29;20059;-79
2022/10/23 00:24:23;;;;;;;9.52;3.25;;;;;;;14.94;69.89;96807.28;4897610;29;20049;-79
2022/10/23 00:26:52;;;;;;;8.93;3.00;;;;;;;14.92;70.17;96801.41;4897754;29;20499;-79
2022/10/23 00:29:21;;;;;;;6.10;2.85;;;;;;;14.92;69.62;96798.00;4897298;29;20072;-79
2022/10/23 00:31:52;;;;;;;5.68;3.10;;;;;;;14.90;69.79;96800.00;4897778;29;20067;-78
2022/10/23 00:34:21;;;;;;;4.95;3.35;;;;;;;14.88;69.95;96796.78;4897397;29;20057;-79
2022/10/23 00:36:50;;;;;;;6.15;2.50;;;;;;;14.89;70.14;96793.13;4897481;29;20507;-79
2022/10/23 00:39:20;;;;;;;5.78;2.88;;;;;;;14.91;71.25;96785.84;4897624;29;20418;-79
2022/10/23 00:41:50;;;;;;;4.10;2.60;;;;;;;14.95;70.74;96779.19;4897407;29;20076;-79
2022/10/23 00:44:56;;;;;;;8.30;3.08;;;;;;;14.98;70.93;96774.34;4897556;29;20052;-79
2022/10/23 00:47:25;;;;;;;6.50;2.88;;;;;;;14.96;69.97;96776.34;4897206;29;20027;-79
2022/10/23 00:49:53;;;;;;;5.20;2.55;;;;;;;14.96;69.86;96765.06;4897370;29;20064;-79
2022/10/23 00:52:22;;;;;;;2.95;2.60;;;;;;;14.94;69.74;96760.00;4897545;29;20064;-79
2022/10/23 00:54:51;;;;;;;4.28;2.45;;;;;;;14.94;69.26;96759.19;4897377;29;20084;-79
2022/10/23 00:57:22;;;;;;;3.53;2.40;;;;;;;14.91;69.74;96757.78;4897156;29;20080;-79
2022/10/23 00:59:51;;;;;;;4.22;2.58;;;;;;;14.91;69.39;96754.34;4897743;29;20479;-79
2022/10/23 01:02:21;;;;;;;3.83;2.20;;;;;;;14.89;69.27;96753.72;4897312;29;20057;-79
2022/10/23 01:04:50;;;;;;;4.60;2.17;;;;;;;14.87;69.25;96753.13;4897344;29;20052;-79
2022/10/23 01:07:27;;;;;;;2.28;1.70;;;;;;;14.86;69.05;96749.69;4897248;29;20084;-79
2022/10/23 01:10:04;;;;;;;4.53;2.30;;;;;;;14.83;69.14;96752.75;4897449;29;20056;-79
2022/10/23 01:12:44;;;;;;;6.10;2.33;;;;;;;14.86;68.99;96741.03;4900051;29;20058;-79
2022/10/23 01:15:19;;;;;;;3.03;2.03;;;;;;;14.85;69.11;96740.22;4900665;29;20052;-79
2022/10/23 01:17:55;;;;;;;5.90;2.28;;;;;;;14.85;68.81;96737.59;4900458;29;20063;-79
2022/10/23 01:20:38;;;;;;;3.78;1.85;;;;;;;14.85;69.01;96740.22;4900549;29;20060;-79
2022/10/23 01:23:13;;;;;;;;;;;;;;;14.90;69.10;96742.22;4900986;29;20188;-79
2022/10/23 01:26:02;;;;;;;4.60;1.80;;;;;;;14.89;68.81;96743.22;4900670;29;19967;-79
2022/10/23 01:28:36;;;;;;;2.47;1.85;;;;;;;14.86;68.86;96736.56;4900438;29;20060;-79
2022/10/23 01:31:09;;;;;;;1.88;1.77;;;;;;;14.86;68.57;96730.50;4900224;29;20579;-79
2022/10/23 01:33:41;;;;;;;1.90;1.60;;;;;;;14.84;68.86;96736.75;4900604;29;20064;-79
2022/10/23 01:36:14;;;;;;;3.58;1.80;;;;;;;14.86;68.84;96735.75;4908169;29;20078;-79
2022/10/23 01:38:48;;;;;;;2.97;1.52;;;;;;;14.84;69.75;96734.13;4908874;29;20435;-78
2022/10/23 01:41:21;;;;;;;4.65;1.73;;;;;;;14.85;69.13;96745.47;4900948;29;20052;-79
2022/10/23 01:43:56;;;;;;;1.73;1.63;;;;;;;14.86;69.14;96741.03;4900288;29;20064;-79
2022/10/23 01:46:27;;;;;;;6.28;1.80;;;;;;;14.87;69.24;96732.13;4900496;29;20044;-79
2022/10/23 01:48:57;;;;;;;2.45;1.40;;;;;;;14.88;68.74;96746.88;4903480;29;20108;-79
2022/10/23 01:51:29;;;;;;;1.80;1.70;;;;;;;14.87;68.68;96737.38;4905986;29;20060;-79
2022/10/23 01:54:01;;;;;;;3.63;1.57;;;;;;;14.87;68.59;96727.69;4906389;29;20052;-79
2022/10/23 01:56:33;;;;;;;4.78;1.30;;;;;;;14.87;68.42;96726.84;4900436;29;20108;-79
2022/10/23 01:59:05;;;;;;;;;;;;;;;14.89;68.60;96720.41;4900461;29;20108;-79
2022/10/23 02:01:37;;;;;;;2.10;1.58;;;;;;;14.90;69.17;96715.97;4900078;29;19924;-79
2022/10/23 02:04:12;;;;;;;5.40;1.67;;;;;;;14.89;68.52;96716.97;4900022;29;20049;-79
2022/10/23 02:06:41;;;;;;;4.97;1.73;;;;;;;14.86;68.48;96709.50;4899633;29;20492;-79
2022/10/23 02:09:10;;;;;;;4.00;1.60;;;;;;;14.83;68.39;96703.66;4899659;29;20415;-79
2022/10/23 02:11:46;;;;;;;1.30;1.20;;;;;;;14.83;68.37;96703.66;4899794;29;20088;-79
2022/10/23 02:14:23;;;;;;;2.28;1.10;;;;;;;14.80;68.30;96698.81;4900121;29;20116;-78
2022/10/23 02:16:54;;;;;;;2.25;1.30;;;;;;;14.78;68.41;96708.72;4899614;29;20063;-79
2022/10/23 02:19:29;;;;;;;2.58;1.30;;;;;;;14.78;68.16;96700.84;4900010;29;20080;-79
2022/10/23 02:22:06;;;;;;;2.65;1.33;;;;;;;14.80;68.29;96696.19;4899180;29;20059;-79
2022/10/23 02:24:39;;;;;;;2.95;1.48;;;;;;;14.80;68.13;96695.38;4899800;29;20063;-79
2022/10/23 02:27:12;;;;;;;1.92;1.40;;;;;;;14.81;67.97;96700.41;4898985;29;20052;-79
2022/10/23 02:29:47;;;;;;;1.67;1.30;;;;;;;14.82;68.28;96696.78;4899361;29;20078;-79
2022/10/23 02:32:17;;;;;;;2.85;1.58;;;;;;;14.81;67.99;96697.78;4899739;29;20063;-79
2022/10/23 02:34:47;;;;;;;2.83;1.23;;;;;;;14.80;68.08;96700.63;4899521;29;20060;-79
2022/10/23 02:37:16;;;;;;;2.10;1.30;;;;;;;14.80;67.89;96700.63;4899176;29;20048;-79
2022/10/23 02:39:47;;;;;;;1.40;1.20;;;;;;;14.77;67.98;96701.84;4899223;29;20053;-79
2022/10/23 02:42:23;;;;;;;3.75;1.20;;;;;;;14.77;67.92;96699.22;4899220;29;20052;-79
2022/10/23 02:45:03;;;;;;;1.83;1.50;;;;;;;14.75;68.17;96693.34;4899189;29;20087;-79
2022/10/23 02:47:47;;;;;;;2.97;1.85;;;;;;;14.72;68.39;96688.53;4898699;29;20139;-79
2022/10/23 02:50:24;;;;;;;2.85;1.90;;;;;;;14.69;68.24;96691.53;4899396;29;20071;-79
2022/10/23 02:53:02;;;;;;;2.03;1.75;;;;;;;14.70;68.32;96684.50;4898687;29;20495;-79
2022/10/23 02:55:43;;;;;;;1.75;1.40;;;;;;;14.69;68.34;96678.41;4898599;29;20511;-79
2022/10/23 02:58:19;;;;;;;1.42;1.33;;;;;;;14.66;68.14;96668.34;4898401;29;20053;-80
2022/10/23 03:00:54;;;;;;;1.83;1.42;;;;;;;14.64;68.20;96667.72;4898881;29;20064;-79
2022/10/23 03:03:30;;;;;;;3.38;1.50;;;;;;;14.63;68.19;96676.63;4899011;29;20400;-79
2022/10/23 03:05:59;;;;;;;2.97;1.92;;;;;;;14.60;68.12;96669.97;4898643;29;20053;-79
2022/10/23 03:08:28;;;;;;;2.25;1.55;;;;;;;14.59;68.20;96662.31;4898455;29;20059;-79
2022/10/23 03:10:57;;;;;;;3.90;1.48;;;;;;;14.56;67.81;96667.94;4898719;29;20251;-78
2022/10/23 03:13:26;;;;;;;1.85;1.40;;;;;;;14.53;68.09;96669.13;4898912;29;20088;-79
2022/10/23 03:15:56;;;;;;;2.22;1.48;;;;;;;14.52;68.03;96671.97;4898404;29;20068;-79
2022/10/23 03:18:25;;;;;;;3.83;2.13;;;;;;;14.52;68.21;96667.53;4898004;29;20096;-79
2022/10/23 03:20:54;;;;;;;2.53;1.35;;;;;;;14.54;68.34;96659.44;4898270;29;20464;-79
2022/10/23 03:23:23;;;;;;;2.95;1.23;;;;;;;14.54;68.05;96659.44;4898814;29;20052;-79
2022/10/23 03:25:54;;;;;;;5.78;1.55;;;;;;;14.53;67.94;96652.59;4898367;29;20056;-79
2022/10/23 03:28:23;;;;;;;4.82;1.48;;;;;;;14.52;67.82;96661.47;4898110;29;20055;-79
2022/10/23 03:30:52;;;;;;;1.70;1.10;;;;;;;14.53;67.87;96657.84;4898609;29;20057;-78
2022/10/23 03:33:23;;;;;;;4.68;1.42;;;;;;;14.50;67.80;96663.50;4897983;29;20460;-79
2022/10/23 03:35:52;;;;;;;7.32;1.50;;;;;;;14.49;67.90;96651.38;4898338;29;20056;-79
2022/10/23 03:38:21;;;;;;;3.78;1.38;;;;;;;14.50;67.87;96655.63;4897750;29;20105;-79
2022/10/23 03:40:50;;;;;;;3.17;1.45;;;;;;;14.52;67.62;96656.22;4898030;29;20487;-79
2022/10/23 03:43:20;;;;;;;4.50;1.70;;;;;;;14.52;67.70;96651.78;4898040;29;20057;-79
2022/10/23 03:45:49;;;;;;;1.75;1.63;;;;;;;14.54;67.54;96648.94;4898049;29;20388;-79
2022/10/23 03:48:18;;;;;;;2.40;1.70;;;;;;;14.54;67.32;96654.19;4897649;29;20104;-79
2022/10/23 03:50:49;;;;;;;1.65;1.38;;;;;;;14.56;67.31;96657.44;4897872;29;20112;-79
2022/10/23 03:53:18;;;;;;;2.13;1.38;;;;;;;14.55;67.17;96650.59;4897953;29;20053;-79
2022/10/23 03:55:47;;;;;;;3.92;1.40;;;;;;;14.55;67.57;96654.03;4898148;29;20073;-79
2022/10/23 03:58:15;;;;;;;3.10;1.52;;;;;;;14.58;67.53;96652.81;4897735;29;20083;-79
2022/10/23 04:00:44;;;;;;;3.35;1.85;;;;;;;14.58;67.57;96653.63;4897988;29;20052;-79
2022/10/23 04:03:13;;;;;;;3.38;1.52;;;;;;;14.57;67.35;96648.56;4898105;29;20053;-79
2022/10/23 04:05:43;;;;;;;2.90;2.00;;;;;;;14.55;67.38;96650.59;4898029;29;20419;-78
2022/10/23 04:08:13;;;;;;;1.95;1.50;;;;;;;14.54;67.67;96654.19;4897400;29;20052;-78
2022/10/23 04:10:47;;;;;;;2.67;1.60;;;;;;;14.54;67.53;96644.53;4898000;29;20144;-79
2022/10/23 04:13:16;;;;;;;2.28;1.48;;;;;;;14.54;67.74;96643.69;4898069;29;20057;-79
2022/10/23 04:15:49;;;;;;;2.47;1.77;;;;;;;14.55;67.86;96650.59;4897816;29;20117;-79
2022/10/23 04:18:18;;;;;;;2.20;1.23;;;;;;;14.53;67.73;96649.97;4897572;29;20053;-79
2022/10/23 04:20:48;;;;;;;2.17;1.40;;;;;;;14.51;67.36;96649.38;4897579;29;20063;-79
2022/10/23 04:23:19;;;;;;;2.20;1.40;;;;;;;14.47;67.59;96651.56;4897629;29;20052;-79
2022/10/23 04:25:48;;;;;;;2.85;1.30;;;;;;;14.44;67.58;96652.00;4901781;29;20072;-79
2022/10/23 04:33:47;;;;;;;2.22;1.40;;;;;;;14.39;67.77;96650.00;4957507;23;20064;-80
2022/10/23 04:36:51;;;;;;;5.75;1.45;;;;;;;14.39;67.74;96649.19;4940666;29;20048;-81
2022/10/23 04:40:00;;;;;;;2.13;1.20;;;;;;;14.36;68.22;96639.09;4940806;29;20036;-80
2022/10/23 04:43:18;;;;;;;2.27;1.50;;;;;;;14.34;67.74;96648.97;4941376;29;20040;-82
2022/10/23 04:54:21;;;;;;;2.70;1.40;;;;;;;14.33;68.18;96642.94;4944623;29;20036;-80
2022/10/23 04:57:11;;;;;;;1.88;1.55;;;;;;;14.33;67.91;96647.38;4943367;29;20044;-80
2022/10/23 05:00:08;;;;;;;1.38;1.20;;;;;;;14.31;67.94;96642.31;4923689;29;20060;-80
2022/10/23 05:02:56;;;;;;;3.00;1.40;;;;;;;14.29;67.61;96636.47;4925298;29;20028;-80
2022/10/23 05:08:27;;;;;;;2.80;1.20;;;;;;;14.27;67.91;96629.81;4942058;29;20039;-80
2022/10/23 05:11:07;;;;;;;1.73;1.40;;;;;;;14.25;67.91;96629.22;4943924;29;20047;-79
2022/10/23 05:13:47;;;;;;;1.77;1.50;;;;;;;14.18;68.08;96627.41;4944322;29;20060;-80
2022/10/23 05:16:42;;;;;;;2.95;1.40;;;;;;;14.21;68.49;96631.44;4944144;29;20036;-81
2022/10/23 05:19:30;;;;;;;6.30;1.05;;;;;;;14.18;68.18;96627.41;4943638;29;20060;-80
2022/10/23 05:25:18;;;;;;;4.70;1.45;;;;;;;14.22;68.43;96633.06;4941937;29;20043;-79
2022/10/23 05:28:30;;;;;;;1.90;1.52;;;;;;;14.25;68.51;96639.72;4928463;29;20032;-82
2022/10/23 05:31:20;;;;;;;2.15;1.42;;;;;;;14.22;69.37;96646.19;4940967;29;20053;-80
2022/10/23 05:33:58;;;;;;;2.70;1.73;;;;;;;14.21;68.18;96647.16;4943540;29;20043;-79
2022/10/23 05:37:00;;;;;;;3.63;1.63;;;;;;;14.20;68.82;96648.19;4943240;29;20039;-79
2022/10/23 05:39:41;;;;;;;5.10;1.75;;;;;;;14.16;68.17;96639.91;4943589;29;20048;-79
2022/10/23 05:42:26;;;;;;;5.82;1.52;;;;;;;14.14;68.01;96646.38;4943456;29;20084;-79
2022/10/23 05:45:18;;;;;;;3.33;1.60;;;;;;;14.09;68.47;96641.75;4943532;29;20036;-79
2022/10/23 05:48:11;;;;;;;1.83;1.60;;;;;;;14.10;68.61;96626.81;4943160;29;20058;-83
2022/10/23 05:51:27;;;;;;;2.13;1.27;;;;;;;14.10;68.41;96638.13;4943470;29;20036;-79
2022/10/23 05:54:23;;;;;;;7.88;1.50;;;;;;;14.09;68.57;96636.50;4928654;29;20052;-80
2022/10/23 05:57:09;;;;;;;2.38;1.40;;;;;;;14.10;68.40;96640.75;4942359;29;20048;-79
2022/10/23 06:00:27;;;;;;;3.92;1.77;;;;;;;14.09;68.48;96638.31;4943395;29;20055;-80
2022/10/23 06:03:19;;;;;;;1.65;1.52;;;;;;;14.07;68.26;96637.72;4943148;29;20032;-80
2022/10/23 06:06:18;;;;;;;2.20;1.73;;;;;;;14.05;68.42;96629.25;4942212;29;20095;-80
2022/10/23 06:08:55;;;;;;;2.75;1.35;;;;;;;14.02;68.28;96631.25;4942651;29;20052;-79
2022/10/23 06:17:16;;;;;;;2.95;1.67;;;;;;;14.04;68.24;96615.31;4941084;29;20103;-79
2022/10/23 06:19:47;;;;;;;3.53;1.60;;;;;;;14.03;68.52;96621.56;4941576;29;20063;-79
2022/10/23 06:22:16;;;;;;;2.67;1.50;;;;;;;14.04;68.43;96628.44;4940436;29;20119;-79
2022/10/23 06:24:48;;;;;;;4.97;1.75;;;;;;;14.04;68.18;96633.69;4937960;29;20051;-79
2022/10/23 06:27:23;;;;;;;1.63;1.52;;;;;;;14.05;68.18;96626.63;4940665;29;20056;-80
2022/10/23 06:29:58;;;;;;;3.35;1.85;;;;;;;14.04;68.04;96622.38;4941659;29;20036;-80
2022/10/23 06:32:32;;;;;;;1.70;1.60;;;;;;;14.04;68.85;96627.59;4941046;29;20040;-79
2022/10/23 06:35:08;;;;;;;3.33;1.70;;;;;;;14.06;68.43;96617.72;4941792;29;20059;-79
2022/10/23 06:37:48;;;;;;;3.00;1.48;;;;;;;14.08;68.41;96628.81;4925109;29;20047;-81
2022/10/23 06:40:32;;;;;;;2.65;1.42;;;;;;;14.11;68.63;96618.75;4925686;29;20044;-79
2022/10/23 06:43:02;;;;;;;1.60;1.20;;;;;;;14.16;68.18;96618.94;4934474;29;20052;-80
2022/10/23 06:45:34;;;;;;;3.30;1.63;;;;;;;14.17;67.82;96617.13;4927875;29;20041;-79
2022/10/23 06:48:04;;;;;;;13.95;1.98;;;;;;;14.17;67.76;96614.50;4932638;29;20040;-80
2022/10/23 06:50:39;;;;;;;3.10;1.50;;;;;;;14.16;67.56;96615.50;4940127;29;20048;-79
2022/10/23 06:53:11;;;;;;;2.67;1.73;;;;;;;14.17;67.87;96619.75;4938496;29;20499;-79
2022/10/23 06:55:42;;;;;;;3.75;1.35;;;;;;;14.20;67.49;96611.47;4935572;29;20059;-80
2022/10/23 06:58:11;;;;;;;2.78;1.48;;;;;;;14.23;67.36;96616.28;4937250;29;20075;-80
2022/10/23 07:00:38;;;;;;;1.20;1.10;;;;;;;14.24;67.35;96617.94;4937965;29;20032;-81
2022/10/23 07:03:08;;;;;;;1.95;1.30;;;;;;;14.27;67.61;96612.25;4942010;29;20040;-80
2022/10/23 07:05:43;;;;;;;2.60;1.15;;;;;;;14.28;67.56;96619.13;4942423;29;20092;-81
2022/10/23 07:08:23;;;;;;;2.10;1.52;;;;;;;14.30;67.78;96617.13;4939664;29;20036;-79
2022/10/23 07:10:56;;;;;;;3.42;2.50;;;;;;;14.30;67.17;96622.34;4938916;29;20069;-79
2022/10/23 07:13:28;;;;;;;9.00;3.58;;;;;;;14.30;67.10;96619.72;4938931;29;20056;-80
2022/10/23 07:15:59;;;;;;;8.30;4.72;;;;;;;14.34;67.66;96617.50;4939255;29;20082;-79
2022/10/23 07:18:31;;;;;;;2.65;1.52;;;;;;;14.34;66.89;96601.75;4929899;29;20434;-79
2022/10/23 07:21:03;;;;;;;3.03;1.33;;;;;;;14.36;66.93;96611.03;4938538;29;20052;-81
2022/10/23 07:23:35;;;;;;;2.30;1.02;;;;;;;14.40;66.82;96606.97;4938375;29;20039;-81
2022/10/23 07:26:09;;;;;;;2.85;1.45;;;;;;;14.39;66.51;96608.00;4939497;29;20032;-79
2022/10/23 07:28:40;;;;;;;1.52;1.30;;;;;;;14.40;66.19;96603.56;4941501;29;20044;-81
2022/10/23 07:31:11;;;;;;;2.53;1.25;;;;;;;14.39;66.33;96610.63;4941416;29;20051;-79
2022/10/23 07:33:40;;;;;;;2.70;1.10;;;;;;;14.39;66.24;96610.63;4940329;29;20048;-79
2022/10/23 07:36:13;;;;;;;1.45;1.35;;;;;;;14.40;66.17;96609.59;4937982;29;20056;-80
2022/10/23 07:38:44;;;;;;;1.55;1.42;;;;;;;14.42;66.51;96619.91;4922319;29;20036;-80
2022/10/23 07:41:15;;;;;;;1.98;1.20;;;;;;;14.46;66.17;96613.22;4938184;29;20036;-78
2022/10/23 07:43:53;;;;;;;5.18;3.20;;;;;;;14.51;66.33;96634.41;4939764;29;20052;-81
2022/10/23 07:46:23;;;;;;;4.22;2.20;;;;;;;14.55;66.04;96624.34;4941419;29;20036;-80
2022/10/23 07:49:14;;;;;;;2.88;1.63;;;;;;;14.62;65.80;96622.50;4941423;29;20096;-79
2022/10/23 07:51:47;;;;;;;1.90;1.73;;;;;;;14.73;65.84;96632.38;4940735;29;20093;-82
2022/10/23 07:54:23;;;;;;;2.88;1.63;;;;;;;14.83;65.45;96632.75;4941824;29;20043;-81
2022/10/23 08:02:44;;;;;;;2.28;1.40;;;;;;;14.98;65.60;96618.56;4937909;29;20470;-79
2022/10/23 08:05:22;;;;;;;2.13;1.70;;;;;;;14.98;65.52;96614.09;4924902;29;20055;-80
2022/10/23 08:07:59;;;;;;;3.65;2.00;;;;;;;15.01;65.43;96613.66;4936364;29;20036;-80
2022/10/23 08:10:47;;;;;;;1.77;1.65;;;;;;;15.00;65.66;96614.69;4891007;29;20051;-79
2022/10/23 08:13:24;;;;;;;2.05;1.85;;;;;;;15.05;65.64;96616.69;4921566;29;20080;-82
2022/10/23 08:16:05;;;;;;;2.35;1.83;;;;;;;15.10;65.37;96622.13;4919679;29;20085;-79
2022/10/23 08:18:46;;;;;;;8.25;2.35;;;;;;;15.18;65.57;96621.09;4905762;29;20080;-79
2022/10/23 08:24:22;;;;;;;1.75;1.65;;;;;;;15.36;65.11;96623.00;4925066;29;20074;-79
2022/10/23 08:27:08;;;;;;;5.03;1.98;;;;;;;15.41;64.82;96616.09;4925280;29;20056;-79
2022/10/23 08:29:41;;;;;;;1.83;1.73;;;;;;;15.48;64.71;96623.94;4914393;29;20104;-79
2022/10/23 08:32:19;;;;;;;5.57;1.83;;;;;;;15.55;64.42;96622.06;4907701;29;20037;-79
2022/10/23 08:48:16;;;;;;;3.00;1.55;;;;;;;16.20;62.58;96597.28;4921473;29;20515;-81
2022/10/23 08:50:49;;;;;;;2.45;1.52;;;;;;;16.28;62.05;96587.28;4919514;29;20056;-80
2022/10/23 08:53:27;;;;;;;1.48;1.35;;;;;;;16.36;62.00;96591.47;4904939;29;20128;-81
2022/10/23 08:56:02;;;;;;;3.95;1.67;;;;;;;16.46;61.58;96591.78;4906311;29;20134;-80
2022/10/23 08:58:39;;;;;;;3.40;1.55;;;;;;;16.59;61.03;96592.63;4906657;29;20052;-80
2022/10/23 09:01:32;;;;;;;2.83;1.27;;;;;;;16.81;60.54;96585.13;4911009;29;20111;-81
2022/10/23 09:04:03;;;;;;;1.90;1.35;;;;;;;17.06;59.96;96582.38;4922450;29;20521;-81
2022/10/23 09:06:36;;;;;;;2.95;1.75;;;;;;;17.28;59.30;96580.84;4922610;29;20494;-80
2022/10/23 09:09:33;;;;;;;1.17;1.08;;;;;;;17.52;59.01;96574.84;4934344;29;20043;-78
2022/10/23 09:27:26;;;;;;;4.55;1.45;;;;;;;18.06;57.17;96578.25;5138549;23;20060;-79
2022/10/23 10:51:08;;;;;;;2.15;1.17;;;;;;;23.42;41.69;96513.25;5047407;23;20317;-79
2022/10/23 10:53:49;;;;;;;2.15;1.10;;;;;;;23.61;40.85;96502.06;4932502;29;20054;-78
2022/10/23 10:56:20;;;;;;;6.88;1.17;;;;;;;23.80;39.90;96511.13;4940954;29;20056;-78
2022/10/23 10:58:52;;;;;;;1.50;1.00;;;;;;;23.97;39.36;96497.53;4921703;29;20051;-79
2022/10/23 11:01:25;;;;;;;;;;;;;;;24.15;41.64;96498.03;4920270;29;20068;-78
2022/10/23 11:38:57;;;;;;;0.38;0.30;;;;;;;27.00;33.78;96469.19;5214031;23;20089;-75
2022/10/23 11:41:28;;;;;;;2.38;0.60;;;;;;;26.84;31.72;96465.16;4906395;29;20075;-77
2022/10/23 11:44:00;;;;;;;0.40;0.40;;;;;;;26.70;32.70;96463.19;4903202;29;20120;-76
2022/10/23 11:46:33;;;;;;;1.60;0.75;;;;;;;26.62;33.80;96457.69;4897693;29;20061;-77
2022/10/23 11:49:04;;;;;;;0.93;0.60;;;;;;;26.58;33.75;96451.31;4887068;29;20087;-76
2022/10/23 11:51:37;;;;;;;2.50;0.50;;;;;;;26.80;34.24;96450.75;4897212;29;20053;-77
2022/10/23 11:54:25;;;;;;;1.05;0.40;;;;;;;27.28;31.42;96453.28;4897727;29;20384;-77
2022/10/23 11:57:10;;;;;;;0.65;0.50;;;;;;;27.28;30.93;96450.59;4896805;29;20055;-77
2022/10/23 11:59:51;;;;;;;2.47;0.60;;;;;;;26.88;30.99;96455.47;4894557;29;20063;-76
2022/10/23 12:02:30;;;;;;;0.70;0.60;;;;;;;26.41;34.17;96449.09;4884821;29;20045;-77
2022/10/23 12:05:02;;;;;;;1.95;0.40;;;;;;;26.03;34.17;96449.81;4896716;29;20048;-76
2022/10/23 12:07:34;;;;;;;1.58;0.50;;;;;;;25.72;34.13;96441.31;4897255;29;20064;-77
2022/10/23 12:10:06;;;;;;;0.50;0.50;;;;;;;25.40;34.73;96431.97;4896904;29;20048;-77
2022/10/23 12:12:39;;;;;;;5.78;0.55;;;;;;;25.10;35.92;96443.66;4897382;29;20056;-77
2022/10/23 12:15:18;;;;;;;1.10;0.50;;;;;;;24.76;35.62;96427.66;4897128;29;20052;-77
2022/10/23 12:17:48;;;;;;;0.95;0.50;;;;;;;24.47;36.42;96423.78;4896890;29;20052;-77
2022/10/23 12:20:25;;;;;;;0.73;0.57;;;;;;;24.22;37.03;96424.69;4897625;29;20060;-75
2022/10/23 12:23:15;;;;;;;1.15;0.45;;;;;;;23.97;37.52;96427.47;4896508;29;20055;-75
2022/10/23 12:25:59;;;;;;;0.65;0.65;;;;;;;23.67;38.31;96402.47;4891473;29;20048;-77
2022/10/23 12:28:36;;;;;;;1.17;0.73;;;;;;;23.45;38.47;96394.81;4896542;29;20119;-77
2022/10/23 12:31:20;;;;;;;1.55;0.75;;;;;;;23.23;39.20;96392.44;4878811;29;20513;-77
2022/10/23 12:33:59;;;;;;;2.55;1.00;;;;;;;23.07;40.02;96393.50;4893516;29;20072;-77
2022/10/23 12:36:44;;;;;;;0.70;0.70;;;;;;;22.86;40.27;96393.47;4897800;29;20423;-77
2022/10/23 12:39:25;;;;;;;1.52;1.00;;;;;;;22.71;40.94;96385.47;4897373;29;20064;-77
2022/10/23 12:41:55;;;;;;;3.00;1.00;;;;;;;22.54;41.17;96377.75;4898409;29;20061;-77
2022/10/23 12:44:24;;;;;;;3.10;1.02;;;;;;;22.36;41.52;96377.19;4898782;29;20052;-79
2022/10/23 12:46:56;;;;;;;1.00;0.90;;;;;;;22.23;42.20;96392.81;4897418;29;20048;-77
2022/10/23 12:49:25;;;;;;;1.38;1.15;;;;;;;22.11;42.39;96380.53;4902045;29;20056;-78
2022/10/23 12:51:57;;;;;;;1.08;0.95;;;;;;;22.04;43.19;96384.47;4914019;29;20057;-78
2022/10/23 12:54:24;;;;;;;2.13;1.40;;;;;;;22.02;43.35;96395.38;4908226;29;20053;-78
2022/10/23 12:56:53;;;;;;;2.78;1.10;;;;;;;21.99;43.07;96386.06;4903627;29;20126;-78
2022/10/23 12:59:26;;;;;;;2.22;1.50;;;;;;;21.94;43.50;96382.59;4911201;29;20056;-78
2022/10/23 13:01:54;;;;;;;2.30;1.27;;;;;;;21.86;43.36;96385.75;4910710;29;20045;-78
2022/10/23 13:04:27;;;;;;;2.92;1.60;;;;;;;21.75;43.98;96375.06;4898507;29;20052;-77
2022/10/23 13:06:56;;;;;;;4.97;1.20;;;;;;;21.72;44.11;96372.94;4900779;29;20052;-78
2022/10/23 13:09:29;;;;;;;1.60;1.02;;;;;;;21.71;44.41;96374.00;4901137;29;20087;-78
2022/10/23 13:12:02;;;;;;;2.25;1.23;;;;;;;21.74;44.92;96362.88;4901485;29;20100;-78
2022/10/23 13:14:39;;;;;;;2.75;1.20;;;;;;;21.75;44.45;96359.13;4900923;29;20060;-77
2022/10/23 13:17:14;;;;;;;0.90;0.90;;;;;;;21.71;44.36;96360.75;4901346;29;20165;-77
2022/10/23 13:19:46;;;;;;;3.83;1.17;;;;;;;21.66;44.53;96363.34;4904270;29;20052;-78
2022/10/23 13:22:19;;;;;;;4.13;1.30;;;;;;;21.62;44.88;96354.28;4903903;29;20048;-78
2022/10/23 13:24:48;;;;;;;;;;;;;;;21.63;45.09;96355.91;4905230;29;20052;-78
2022/10/23 13:27:33;;;;;;;1.65;1.50;;;;;;;21.59;45.22;96345.00;4904270;29;19934;-78
2022/10/23 13:30:06;;;;;;;2.60;1.25;;;;;;;21.57;45.25;96346.31;4901738;29;20048;-77
2022/10/23 13:32:39;;;;;;;2.47;1.67;;;;;;;21.55;45.12;96343.13;4900677;29;20109;-79
2022/10/23 13:35:23;;;;;;;1.63;1.50;;;;;;;21.52;45.40;96339.13;4900283;29;20426;-78
2022/10/23 13:37:54;;;;;;;3.63;1.50;;;;;;;21.50;45.99;96335.16;4885797;29;20064;-79
2022/10/23 13:40:25;;;;;;;2.10;1.52;;;;;;;21.45;46.32;96327.13;4889494;29;20045;-79
2022/10/23 13:42:56;;;;;;;3.38;1.50;;;;;;;21.39;46.23;96324.44;4901755;29;20059;-78
2022/10/23 13:45:31;;;;;;;6.37;2.50;;;;;;;21.38;46.87;96322.84;4901338;29;20048;-78
2022/10/23 13:48:01;;;;;;;5.35;1.85;;;;;;;21.39;46.73;96329.75;4901470;29;20061;-78
2022/10/23 13:50:34;;;;;;;3.58;1.88;;;;;;;21.38;46.38;96330.81;4900654;29;20104;-79
2022/10/23 13:53:07;;;;;;;3.90;1.60;;;;;;;21.33;46.86;96330.78;4916195;29;20044;-79
2022/10/23 13:55:39;;;;;;;8.52;4.03;;;;;;;21.31;46.99;96324.91;4915129;29;20057;-79
2022/10/23 13:58:09;;;;;;;;;;;;;;;21.34;47.08;96343.00;4915446;29;20549;-79
2022/10/23 14:00:43;;;;;;;4.05;1.90;;;;;;;21.27;46.88;96337.09;4915486;29;20289;-79
2022/10/23 14:03:14;;;;;;;5.30;1.92;;;;;;;21.18;46.89;96334.13;4912898;29;20104;-79
2022/10/23 14:05:44;;;;;;;2.05;1.45;;;;;;;21.09;47.32;96335.66;4913712;29;20159;-79
2022/10/23 14:08:14;;;;;;;1.75;1.52;;;;;;;21.00;47.32;96331.88;4913384;29;20052;-79
2022/10/23 14:10:46;;;;;;;4.28;1.42;;;;;;;20.94;47.85;96344.31;4913799;29;20049;-79
2022/10/23 14:13:15;;;;;;;3.58;1.55;;;;;;;20.88;47.91;96339.22;4914621;29;20052;-79
2022/10/23 14:15:53;;;;;;;2.20;2.00;;;;;;;20.80;48.45;96337.84;4913257;29;20049;-79
2022/10/23 14:18:23;;;;;;;2.65;2.13;;;;;;;20.71;48.45;96342.81;4913529;29;20072;-80
2022/10/23 14:20:52;;;;;;;3.92;1.67;;;;;;;20.66;48.75;96329.53;4913541;29;20053;-79
2022/10/23 14:23:22;;;;;;;3.35;1.70;;;;;;;20.57;49.08;96331.84;4913633;29;20080;-80
2022/10/23 14:25:54;;;;;;;2.72;1.58;;;;;;;20.55;49.66;96341.84;4912567;29;20072;-80
2022/10/23 14:28:27;;;;;;;1.50;1.40;;;;;;;20.52;49.34;96342.34;4912277;29;20056;-79
2022/10/23 14:30:57;;;;;;;1.58;0.90;;;;;;;20.48;49.17;96335.94;4913519;29;20048;-80
2022/10/23 14:33:28;;;;;;;1.23;1.10;;;;;;;20.46;49.63;96329.28;4912905;29;20064;-80
2022/10/23 14:35:58;;;;;;;2.23;1.17;;;;;;;20.42;49.62;96334.28;4912140;29;20056;-80
2022/10/23 14:38:30;;;;;;;4.10;1.35;;;;;;;20.39;50.14;96334.81;4913562;29;20053;-80
2022/10/23 14:40:59;;;;;;;3.60;1.42;;;;;;;20.35;49.89;96331.84;4912601;29;20056;-79
2022/10/23 14:43:31;;;;;;;2.13;1.10;;;;;;;20.28;50.42;96341.06;4912840;29;20076;-80
2022/10/23 14:46:11;;;;;;;1.80;1.30;;;;;;;20.22;50.66;96337.53;4912900;29;20113;-79
2022/10/23 14:48:44;;;;;;;6.03;2.50;;;;;;;20.17;50.90;96333.00;4912478;29;20075;-79
2022/10/23 14:51:23;;;;;;;2.58;1.08;;;;;;;20.13;50.85;96325.78;4912494;29;20052;-80
2022/10/23 14:54:00;;;;;;;24.88;13.32;;;;;;;20.08;51.25;96331.06;4911552;29;20064;-79
2022/10/23 14:56:40;;;;;;;15.65;13.93;;;;;;;20.02;51.63;96330.19;4912535;29;20056;-79
2022/10/23 14:59:13;;;;;;;63.00;56.22;;;;;;;19.96;51.77;96318.75;4912265;29;20060;-80
2022/10/23 15:01:49;;;;;;;12.63;11.30;;;;;;;19.90;51.75;96313.66;4912122;29;20056;-79
2022/10/23 15:04:24;;;;;;;13.95;10.80;;;;;;;19.83;51.74;96305.09;4911145;29;20056;-80
2022/10/23 15:06:53;;;;;;;69.78;49.53;;;;;;;19.75;52.71;96312.41;4911067;29;20056;-79
2022/10/23 15:09:24;;;;;;;35.88;24.55;;;;;;;19.71;52.94;96316.59;4911902;29;20057;-79
2022/10/23 15:11:54;;;;;;;37.13;23.33;;;;;;;19.69;52.75;96325.81;4895174;29;20499;-79